Terminal Aerodrome Forecast
Issued by NWS St Louis, MO

Home | Current Version | Previous Version | Text Only | Print | Product List | Glossary On
Versions: 1 2 3 4 5 6 7 8 9 10 11 12 13 14 15 16 17 18 19 20 21 22 23 24 25
000
FTUS43 KLSX 171500 AAA
TAFSTL
TAF AMD
KSTL 171512Z 1715/1818 16008KT P6SM SCT020 OVC040
      TEMPO 1715/1718 -RA OVC020
     FM171900 16006KT P6SM SCT020 OVC035
     FM180300 09004KT P6SM BKN050
     FM180900 07004KT 5SM BR SCT040=

USA.gov is the U.S. government's official web portal to all federal, state and local government web resources and services.